createdAt,value
2022-10-05T02:05:02.819Z,8.80
2022-10-05T02:07:38.758Z,8.60
2022-10-05T02:20:23.571Z,8.90
2022-10-05T02:22:58.262Z,8.90
2022-10-05T02:28:28.216Z,9.10
2022-10-05T02:31:08.956Z,8.90
2022-10-05T02:33:36.493Z,8.80
2022-10-05T02:36:26.166Z,8.90
2022-10-05T02:38:53.066Z,8.90
2022-10-05T02:42:02.346Z,8.80
2022-10-05T02:44:45.718Z,8.90
2022-10-05T02:52:39.675Z,8.90
2022-10-05T02:55:48.137Z,8.90
2022-10-05T02:58:25.046Z,8.90
2022-10-05T03:01:08.297Z,8.90
2022-10-05T03:04:00.649Z,8.90
2022-10-05T03:06:32.872Z,8.90
2022-10-05T03:09:10.270Z,8.90
2022-10-05T03:11:49.052Z,8.90
2022-10-05T03:14:39.499Z,8.90
2022-10-05T03:17:25.665Z,8.80
2022-10-05T03:20:12.198Z,8.80
2022-10-05T03:22:53.493Z,8.90
2022-10-05T03:25:41.447Z,8.90
2022-10-05T03:28:37.481Z,8.90
2022-10-05T03:31:13.888Z,8.90
2022-10-05T03:33:43.921Z,8.90
2022-10-05T03:36:13.770Z,8.90
2022-10-05T03:38:46.473Z,8.90
2022-10-05T03:41:21.648Z,8.90
2022-10-05T03:44:16.152Z,8.90
2022-10-05T03:47:10.530Z,8.90
2022-10-05T03:49:52.673Z,9.00
2022-10-05T03:52:25.615Z,9.00
2022-10-05T03:55:00.746Z,9.00
2022-10-05T03:57:31.696Z,9.00
2022-10-05T04:00:06.075Z,9.00
2022-10-05T04:02:58.281Z,9.10
2022-10-05T04:05:41.482Z,9.10
2022-10-05T04:08:18.325Z,9.00
2022-10-05T04:10:52.465Z,9.00
2022-10-05T04:13:26.414Z,9.00
2022-10-05T04:16:14.880Z,9.00
2022-10-05T04:19:15.117Z,9.00
2022-10-05T04:21:56.269Z,9.00
2022-10-05T04:24:49.427Z,9.00
2022-10-05T04:27:39.407Z,9.00
2022-10-05T04:30:17.678Z,9.10
2022-10-05T04:32:59.594Z,9.10
2022-10-05T04:35:50.451Z,9.00
2022-10-05T04:38:24.137Z,9.00
2022-10-05T04:40:54.732Z,9.00
2022-10-05T04:43:37.631Z,9.00
2022-10-05T04:46:29.510Z,8.90
2022-10-05T04:49:23.985Z,9.00
2022-10-05T04:52:29.793Z,8.90
2022-10-05T04:55:22.698Z,8.90
2022-10-05T04:58:02.805Z,8.90
2022-10-05T05:01:14.217Z,8.90
2022-10-05T05:03:59.937Z,8.90
2022-10-05T05:06:41.075Z,8.90
2022-10-05T05:09:24.223Z,8.90
2022-10-05T05:12:09.242Z,8.90
2022-10-05T05:14:44.987Z,8.90
2022-10-05T05:17:33.401Z,9.00
2022-10-05T05:20:28.913Z,8.90
2022-10-05T05:23:05.004Z,8.90
2022-10-05T05:25:45.242Z,8.90
2022-10-05T05:28:14.969Z,9.00
2022-10-05T05:31:09.683Z,9.00
2022-10-05T05:33:56.434Z,9.10
2022-10-05T05:36:36.564Z,9.10
2022-10-05T05:39:15.217Z,9.20
2022-10-05T05:42:17.186Z,9.30
2022-10-05T05:44:52.027Z,9.40
2022-10-05T05:47:35.369Z,9.40
2022-10-05T05:50:20.321Z,9.50
2022-10-05T05:52:52.198Z,9.50
2022-10-05T05:55:30.522Z,9.60
2022-10-05T05:58:02.392Z,9.60
2022-10-05T06:00:42.912Z,9.70
2022-10-05T06:03:39.502Z,9.70
2022-10-05T06:06:16.133Z,9.80
2022-10-05T06:08:57.035Z,9.90
2022-10-05T06:11:27.092Z,9.90
2022-10-05T06:13:58.274Z,10.00
2022-10-05T06:16:38.717Z,10.00
2022-10-05T06:19:17.791Z,10.00
2022-10-05T06:22:14.047Z,10.00
2022-10-05T06:25:04.142Z,10.00
2022-10-05T06:28:03.801Z,10.10
2022-10-05T06:30:43.734Z,10.20
2022-10-05T06:33:22.998Z,10.20
2022-10-05T06:35:52.629Z,10.20
2022-10-05T06:38:32.242Z,10.20
2022-10-05T06:41:17.149Z,10.30
2022-10-05T06:44:29.050Z,10.30
2022-10-05T06:46:56.005Z,10.40
2022-10-05T06:49:28.413Z,10.50
2022-10-05T06:52:13.829Z,10.50
2022-10-05T06:54:59.448Z,10.60
2022-10-05T07:00:21.328Z,10.80
2022-10-05T07:02:58.513Z,10.90
2022-10-05T07:05:31.577Z,10.90
2022-10-05T07:08:03.060Z,10.90
2022-10-05T07:11:25.090Z,11.00
2022-10-05T07:14:00.283Z,11.20
2022-10-05T07:16:42.206Z,11.20
2022-10-05T07:19:23.920Z,11.20
2022-10-05T07:22:08.829Z,11.30
2022-10-05T07:24:50.097Z,11.30
2022-10-05T07:27:21.175Z,11.30
2022-10-05T07:35:49.633Z,11.40
2022-10-05T07:38:39.587Z,11.50
2022-10-05T07:41:09.150Z,11.40
2022-10-05T07:44:03.310Z,11.40
2022-10-05T07:46:50.243Z,11.30
2022-10-05T07:49:22.142Z,11.20
2022-10-05T07:51:59.081Z,11.30
2022-10-05T07:54:52.951Z,11.20
2022-10-05T07:57:43.929Z,11.20
2022-10-05T08:00:19.168Z,11.20
2022-10-05T08:03:02.917Z,11.20
2022-10-05T08:05:32.806Z,11.20
2022-10-05T08:08:18.202Z,11.20
2022-10-05T08:11:02.610Z,11.30
2022-10-05T08:13:42.476Z,11.30
2022-10-05T08:16:14.719Z,11.30
2022-10-05T08:19:14.413Z,11.30
2022-10-05T08:22:07.064Z,11.40
2022-10-05T08:24:59.456Z,11.50
2022-10-05T08:27:36.075Z,11.60
2022-10-05T08:30:10.993Z,11.60
2022-10-05T08:32:50.515Z,11.70
2022-10-05T08:35:34.949Z,11.70
2022-10-05T08:38:09.386Z,11.90
2022-10-05T08:41:00.822Z,11.90
2022-10-05T08:44:12.367Z,12.00
2022-10-05T08:46:54.413Z,12.20
2022-10-05T08:49:58.729Z,12.20
2022-10-05T08:52:29.033Z,12.10
2022-10-05T08:55:28.867Z,12.20
2022-10-05T08:58:04.618Z,12.20
2022-10-05T09:01:06.094Z,12.30
2022-10-05T09:03:47.980Z,12.30
2022-10-05T09:06:36.112Z,12.30
2022-10-05T09:09:34.012Z,12.40
2022-10-05T09:12:09.716Z,12.40
2022-10-05T09:15:25.465Z,12.20
2022-10-05T09:18:30.613Z,12.20
2022-10-05T09:21:36.174Z,12.40
2022-10-05T09:24:15.549Z,12.40
2022-10-05T09:27:07.870Z,12.50
2022-10-05T09:30:11.532Z,12.50
2022-10-05T09:33:15.916Z,12.60
2022-10-05T09:36:04.500Z,12.60
2022-10-05T09:38:54.425Z,12.70
2022-10-05T09:41:53.502Z,12.60
2022-10-05T09:44:40.506Z,12.60
2022-10-05T09:47:48.859Z,12.60
2022-10-05T09:50:41.031Z,12.60
2022-10-05T09:53:40.635Z,12.50
2022-10-05T09:56:09.471Z,12.50
2022-10-05T09:58:57.763Z,12.50
2022-10-05T10:01:33.607Z,12.50
2022-10-05T10:04:20.459Z,12.60
2022-10-05T10:07:14.368Z,12.50
2022-10-05T10:10:21.901Z,12.40
2022-10-05T10:13:00.918Z,12.40
2022-10-05T10:15:59.628Z,12.40
2022-10-05T10:18:35.681Z,12.30
2022-10-05T10:21:21.031Z,12.20
2022-10-05T10:24:10.550Z,12.20
2022-10-05T10:27:07.876Z,12.20
2022-10-05T10:29:53.659Z,12.10
2022-10-05T10:33:00.922Z,12.10
2022-10-05T10:35:36.048Z,12.20
2022-10-05T10:38:31.075Z,12.00
2022-10-05T10:41:19.432Z,12.10
2022-10-05T10:44:13.088Z,12.00
2022-10-05T10:46:58.518Z,11.90
2022-10-05T10:49:55.840Z,11.90
2022-10-05T10:52:53.921Z,11.90
2022-10-05T10:55:45.475Z,11.90
2022-10-05T10:58:43.926Z,11.90
2022-10-05T11:01:34.876Z,11.90
2022-10-05T11:04:23.661Z,12.00
2022-10-05T11:07:28.221Z,12.00
2022-10-05T11:10:15.431Z,12.00
2022-10-05T11:13:12.614Z,12.10
2022-10-05T11:16:01.192Z,12.10
2022-10-05T11:19:07.103Z,12.20
2022-10-05T11:21:55.381Z,12.30
2022-10-05T11:24:43.733Z,12.20
2022-10-05T11:28:04.792Z,12.20
2022-10-05T11:31:03.934Z,12.20
2022-10-05T11:34:08.070Z,12.30
2022-10-05T11:37:02.236Z,12.20
2022-10-05T11:39:33.468Z,12.30
2022-10-05T11:42:18.878Z,12.30
2022-10-05T11:45:11.700Z,12.30
2022-10-05T11:48:00.837Z,12.30
2022-10-05T11:50:51.751Z,12.40
2022-10-05T11:53:40.784Z,12.30
2022-10-05T11:56:33.545Z,12.30
2022-10-05T11:59:34.596Z,12.30
2022-10-05T12:02:01.473Z,12.30
2022-10-05T12:04:37.477Z,12.40
2022-10-05T12:07:10.143Z,12.40
2022-10-05T12:10:17.561Z,12.40
2022-10-05T12:12:52.965Z,12.30
2022-10-05T12:15:24.178Z,12.30
2022-10-05T12:18:20.006Z,12.40
2022-10-05T12:20:58.451Z,12.40
2022-10-05T12:24:03.741Z,12.50
2022-10-05T12:26:57.955Z,12.60
2022-10-05T12:29:51.074Z,12.70
2022-10-05T12:32:29.495Z,12.80
2022-10-05T12:35:47.296Z,13.10
2022-10-05T12:43:33.857Z,13.00
2022-10-05T12:46:21.675Z,13.20
2022-10-05T12:49:13.009Z,13.30
2022-10-05T12:51:57.986Z,13.20
2022-10-05T12:54:55.043Z,13.40
2022-10-05T12:57:32.125Z,13.40
2022-10-05T13:00:23.004Z,13.40
2022-10-05T13:02:58.958Z,13.40
2022-10-05T13:05:46.602Z,13.40
2022-10-05T13:08:25.540Z,13.40
2022-10-05T13:11:15.266Z,13.40
2022-10-05T13:13:51.438Z,13.60
2022-10-05T13:16:39.689Z,13.30
2022-10-05T13:19:15.407Z,13.50
2022-10-05T13:22:14.341Z,13.60
2022-10-05T13:25:02.621Z,13.70
2022-10-05T13:27:33.469Z,13.60
2022-10-05T13:30:16.697Z,13.50
2022-10-05T13:32:58.490Z,13.60
2022-10-05T13:35:31.270Z,13.50
2022-10-05T13:38:24.338Z,13.50
2022-10-05T13:40:54.226Z,13.60
2022-10-05T13:43:46.004Z,13.50
2022-10-05T13:46:48.703Z,13.50
2022-10-05T13:49:23.857Z,13.50
2022-10-05T13:52:26.336Z,13.40
2022-10-05T13:55:11.251Z,13.40
2022-10-05T13:57:57.838Z,13.60
2022-10-05T14:00:27.118Z,13.40
2022-10-05T14:02:57.019Z,13.50
2022-10-05T14:05:28.981Z,13.40
2022-10-05T14:08:17.350Z,13.60
2022-10-05T14:10:46.425Z,13.30
2022-10-05T14:13:31.435Z,13.50
2022-10-05T14:16:14.091Z,13.40
2022-10-05T14:18:52.607Z,13.30
2022-10-05T14:21:30.017Z,13.30
2022-10-05T14:24:32.135Z,13.20
2022-10-05T14:27:21.230Z,13.00
2022-10-05T14:30:18.067Z,13.00
2022-10-05T14:32:56.317Z,13.00
2022-10-05T14:35:26.263Z,12.90
2022-10-05T14:38:02.761Z,12.90
2022-10-05T14:40:37.082Z,12.80
2022-10-05T14:43:16.281Z,13.00
2022-10-05T14:45:58.127Z,12.90
2022-10-05T14:48:28.219Z,13.00
2022-10-05T14:51:05.748Z,13.00
2022-10-05T14:53:56.547Z,12.90
2022-10-05T14:57:29.287Z,12.80
2022-10-05T15:00:02.420Z,12.40
2022-10-05T15:03:04.637Z,12.70
2022-10-05T15:05:52.997Z,12.60
2022-10-05T15:08:45.250Z,12.60
2022-10-05T15:11:27.082Z,12.60
2022-10-05T15:13:55.503Z,12.60
2022-10-05T15:16:33.085Z,12.50
2022-10-05T15:19:14.352Z,12.50
2022-10-05T15:22:01.368Z,12.50
2022-10-05T15:24:51.802Z,12.40
2022-10-05T15:27:22.167Z,12.40
2022-10-05T15:30:09.834Z,12.40
2022-10-05T15:32:57.950Z,12.40
2022-10-05T15:35:43.516Z,12.40
2022-10-05T15:38:30.119Z,12.40
2022-10-05T15:41:10.014Z,12.40
2022-10-05T15:43:42.230Z,12.30
2022-10-05T15:46:26.090Z,12.30
2022-10-05T15:49:08.618Z,12.30
2022-10-05T15:51:41.090Z,12.30
2022-10-05T15:54:42.754Z,12.20
2022-10-05T15:57:42.907Z,12.20
2022-10-05T16:00:20.159Z,12.20
2022-10-05T16:02:52.159Z,12.20
2022-10-05T16:05:57.485Z,12.10
2022-10-05T16:08:51.359Z,12.10
2022-10-05T16:11:28.269Z,12.00
2022-10-05T16:14:13.550Z,12.10
2022-10-05T16:16:58.961Z,11.90
2022-10-05T16:19:25.936Z,12.00
2022-10-05T16:22:05.845Z,12.10
2022-10-05T16:24:38.528Z,12.20
2022-10-05T16:27:34.246Z,11.90
2022-10-05T16:30:08.742Z,12.10
2022-10-05T16:32:50.037Z,11.80
2022-10-05T16:35:31.935Z,11.80
2022-10-05T16:38:21.073Z,12.00
2022-10-05T16:46:45.914Z,11.30
2022-10-05T16:57:05.638Z,11.30
2022-10-05T16:59:48.942Z,11.30
2022-10-05T17:02:35.101Z,11.70
2022-10-05T17:05:21.343Z,11.40
2022-10-05T17:08:39.549Z,11.40
2022-10-05T17:11:30.390Z,11.80
2022-10-05T17:14:36.855Z,11.60
2022-10-05T17:17:12.409Z,11.50
2022-10-05T17:19:42.388Z,11.50
2022-10-05T17:22:25.073Z,11.40
2022-10-05T17:25:10.274Z,11.60
2022-10-05T17:27:57.161Z,11.70
2022-10-05T17:30:49.839Z,11.50
2022-10-05T17:33:29.766Z,11.50
2022-10-05T17:36:00.968Z,11.90
2022-10-05T17:38:30.585Z,11.50
2022-10-05T17:41:00.187Z,11.60
2022-10-05T17:43:30.814Z,11.60
2022-10-05T17:46:09.788Z,11.80
2022-10-05T17:48:42.839Z,11.60
2022-10-05T17:51:46.537Z,11.80
2022-10-05T17:55:05.127Z,11.90
2022-10-05T17:57:34.093Z,11.70
2022-10-05T18:02:36.333Z,11.90
2022-10-05T18:05:12.506Z,11.70
2022-10-05T18:07:41.616Z,11.70
2022-10-05T18:10:17.147Z,11.70
2022-10-05T18:12:50.846Z,11.90
2022-10-05T18:15:44.817Z,11.80
2022-10-05T18:18:33.313Z,11.70
2022-10-05T18:21:20.469Z,12.10
2022-10-05T18:23:59.261Z,12.00
2022-10-05T18:26:52.073Z,12.00
2022-10-05T18:29:52.874Z,11.90
2022-10-05T18:32:35.782Z,11.90
2022-10-05T18:35:22.478Z,12.10
2022-10-05T18:38:02.390Z,12.10
2022-10-05T18:40:37.774Z,11.80
2022-10-05T18:43:24.495Z,12.00
2022-10-05T18:46:26.435Z,12.00
2022-10-05T18:49:06.857Z,12.20
2022-10-05T18:51:51.684Z,12.10
2022-10-05T18:54:43.354Z,11.80
2022-10-05T18:57:28.931Z,11.70
2022-10-05T19:00:25.592Z,11.60
2022-10-05T19:03:22.901Z,11.50
2022-10-05T19:06:01.732Z,11.60
2022-10-05T19:08:30.174Z,11.40
2022-10-05T19:11:26.259Z,11.50
2022-10-05T19:14:29.336Z,11.10
2022-10-05T19:17:09.636Z,11.30
2022-10-05T19:20:01.715Z,11.00
2022-10-05T19:22:28.614Z,11.20
2022-10-05T19:24:58.688Z,11.10
2022-10-05T19:27:46.496Z,11.00
2022-10-05T19:30:21.327Z,10.80
2022-10-05T19:35:58.406Z,10.50
2022-10-05T19:38:56.320Z,10.80
2022-10-05T19:41:38.191Z,10.80
2022-10-05T19:44:26.767Z,10.60
2022-10-05T19:47:06.640Z,10.60
2022-10-05T19:49:47.627Z,10.60
2022-10-05T19:52:52.981Z,10.60
2022-10-05T19:55:25.123Z,10.50
2022-10-05T19:58:02.454Z,10.50
2022-10-05T20:00:33.987Z,10.50
2022-10-05T20:03:19.435Z,10.50
2022-10-05T20:05:48.092Z,10.40
2022-10-05T20:08:19.763Z,10.40
2022-10-05T20:11:22.581Z,10.40
2022-10-05T20:13:53.109Z,10.30
2022-10-05T20:17:05.942Z,10.30
2022-10-05T20:19:52.436Z,10.30
2022-10-05T20:22:29.808Z,10.20
2022-10-05T20:25:06.389Z,10.20
2022-10-05T20:27:49.676Z,10.20
2022-10-05T20:30:21.780Z,10.20
2022-10-05T20:32:59.714Z,10.20
2022-10-05T20:35:30.595Z,10.10
2022-10-05T20:37:59.801Z,10.40
2022-10-05T20:40:29.192Z,10.30
2022-10-05T20:42:56.796Z,10.40
2022-10-05T20:45:23.801Z,10.20
2022-10-05T20:47:51.015Z,10.10
2022-10-05T20:50:18.467Z,10.20
2022-10-05T20:52:45.404Z,10.20
2022-10-05T20:55:13.032Z,10.30
2022-10-05T20:57:43.757Z,10.00
2022-10-05T21:00:13.151Z,10.10
2022-10-05T21:02:40.148Z,10.30
2022-10-05T21:05:07.836Z,10.10
2022-10-05T21:07:35.272Z,10.00
2022-10-05T21:12:31.113Z,10.00
2022-10-05T21:15:01.862Z,10.20
2022-10-05T21:17:28.770Z,10.30
2022-10-05T22:29:01.907Z,10.30
2022-10-05T22:31:30.500Z,10.50
2022-10-05T22:43:50.886Z,10.10
2022-10-05T22:46:18.643Z,10.30
2022-10-05T22:48:45.658Z,10.00
2022-10-05T22:51:12.599Z,10.00
2022-10-05T22:53:39.669Z,9.90
2022-10-05T22:56:13.876Z,10.10
2022-10-05T22:58:42.261Z,9.80
2022-10-05T23:06:09.524Z,9.70
2022-10-05T23:11:16.687Z,9.60
2022-10-05T23:18:41.731Z,9.60
2022-10-05T23:21:09.862Z,9.60
2022-10-05T23:23:41.225Z,9.50
2022-10-05T23:28:38.479Z,9.00
2022-10-05T23:31:07.764Z,9.30
2022-10-05T23:33:35.426Z,9.30
2022-10-05T23:38:31.413Z,9.20
2022-10-05T23:45:56.384Z,9.30
2022-10-05T23:53:21.966Z,9.50
